sensor_id;sensor_type;location;lat;lon;timestamp;pressure;altitude;pressure_sealevel;temperature;humidity
58239;BME280;44037;55.638;37.356;2023-04-05T00:02:11;99326.66;;;7.47;100.00
58239;BME280;44037;55.638;37.356;2023-04-05T00:04:43;99336.06;;;7.45;100.00
58239;BME280;44037;55.638;37.356;2023-04-05T00:07:16;99330.81;;;7.39;100.00
58239;BME280;44037;55.638;37.356;2023-04-05T00:09:47;99329.06;;;7.36;100.00
58239;BME280;44037;55.638;37.356;2023-04-05T00:12:14;99320.38;;;7.33;100.00
58239;BME280;44037;55.638;37.356;2023-04-05T00:14:41;99328.94;;;7.29;100.00
58239;BME280;44037;55.638;37.356;2023-04-05T00:17:09;99319.34;;;7.21;100.00
58239;BME280;44037;55.638;37.356;2023-04-05T00:19:36;99321.84;;;7.17;100.00
58239;BME280;44037;55.638;37.356;2023-04-05T00:22:04;99320.91;;;7.13;100.00
58239;BME280;44037;55.638;37.356;2023-04-05T00:24:36;99328.66;;;7.13;100.00
58239;BME280;44037;55.638;37.356;2023-04-05T00:27:06;99323.50;;;7.13;100.00
58239;BME280;44037;55.638;37.356;2023-04-05T00:29:34;99326.91;;;7.12;100.00
58239;BME280;44037;55.638;37.356;2023-04-05T00:32:01;99322.53;;;7.08;100.00
58239;BME280;44037;55.638;37.356;2023-04-05T00:34:29;99325.94;;;7.07;100.00
58239;BME280;44037;55.638;37.356;2023-04-05T00:36:57;99325.88;;;7.02;100.00
58239;BME280;44037;55.638;37.356;2023-04-05T00:39:24;99322.38;;;6.99;100.00
58239;BME280;44037;55.638;37.356;2023-04-05T00:41:53;99321.47;;;6.97;100.00
58239;BME280;44037;55.638;37.356;2023-04-05T00:44:20;99325.69;;;6.93;100.00
58239;BME280;44037;55.638;37.356;2023-04-05T00:46:47;99325.69;;;6.91;100.00
58239;BME280;44037;55.638;37.356;2023-04-05T00:49:15;99323.91;;;6.89;100.00
58239;BME280;44037;55.638;37.356;2023-04-05T00:51:43;99328.19;;;6.88;100.00
58239;BME280;44037;55.638;37.356;2023-04-05T00:54:11;99325.56;;;6.85;100.00
58239;BME280;44037;55.638;37.356;2023-04-05T00:56:40;99336.69;;;6.84;100.00
58239;BME280;44037;55.638;37.356;2023-04-05T00:59:08;99334.13;;;6.84;100.00
58239;BME280;44037;55.638;37.356;2023-04-05T01:01:39;99335.78;;;6.82;100.00
58239;BME280;44037;55.638;37.356;2023-04-05T01:04:08;99333.09;;;6.76;100.00
58239;BME280;44037;55.638;37.356;2023-04-05T01:06:54;99345.06;;;6.74;100.00
58239;BME280;44037;55.638;37.356;2023-04-05T01:09:33;99347.63;;;6.72;100.00
58239;BME280;44037;55.638;37.356;2023-04-05T01:12:05;99345.81;;;6.68;100.00
58239;BME280;44037;55.638;37.356;2023-04-05T01:14:44;99345.81;;;6.67;100.00
58239;BME280;44037;55.638;37.356;2023-04-05T01:17:11;99336.28;;;6.63;100.00
58239;BME280;44037;55.638;37.356;2023-04-05T01:19:38;99340.50;;;6.59;100.00
58239;BME280;44037;55.638;37.356;2023-04-05T01:25:30;99335.25;;;6.54;100.00
58239;BME280;44037;55.638;37.356;2023-04-05T01:28:11;99334.28;;;6.49;100.00
58239;BME280;44037;55.638;37.356;2023-04-05T01:30:48;99334.22;;;6.46;100.00
58239;BME280;44037;55.638;37.356;2023-04-05T01:33:24;99335.88;;;6.44;100.00
58239;BME280;44037;55.638;37.356;2023-04-05T01:35:54;99339.28;;;6.43;100.00
58239;BME280;44037;55.638;37.356;2023-04-05T01:38:24;99335.84;;;6.41;100.00
58239;BME280;44037;55.638;37.356;2023-04-05T01:40:53;99325.53;;;6.41;100.00
58239;BME280;44037;55.638;37.356;2023-04-05T01:43:20;99336.69;;;6.41;100.00
58239;BME280;44037;55.638;37.356;2023-04-05T01:45:49;99332.34;;;6.39;100.00
58239;BME280;44037;55.638;37.356;2023-04-05T01:48:16;99334.03;;;6.37;100.00
58239;BME280;44037;55.638;37.356;2023-04-05T01:50:43;99334.03;;;6.37;100.00
58239;BME280;44037;55.638;37.356;2023-04-05T01:53:10;99336.59;;;6.37;100.00
58239;BME280;44037;55.638;37.356;2023-04-05T01:55:37;99335.63;;;6.32;100.00
58239;BME280;44037;55.638;37.356;2023-04-05T01:58:05;99338.16;;;6.28;100.00
58239;BME280;44037;55.638;37.356;2023-04-05T02:00:32;99343.25;;;6.27;100.00
58239;BME280;44037;55.638;37.356;2023-04-05T02:03:00;99340.66;;;6.25;100.00
58239;BME280;44037;55.638;37.356;2023-04-05T02:05:27;99346.63;;;6.24;100.00
58239;BME280;44037;55.638;37.356;2023-04-05T02:07:54;99344.91;;;6.25;100.00
58239;BME280;44037;55.638;37.356;2023-04-05T02:10:22;99348.38;;;6.25;100.00
58239;BME280;44037;55.638;37.356;2023-04-05T02:12:50;99349.28;;;6.27;100.00
58239;BME280;44037;55.638;37.356;2023-04-05T02:15:17;99354.31;;;6.23;100.00
58239;BME280;44037;55.638;37.356;2023-04-05T02:17:44;99353.38;;;6.19;100.00
58239;BME280;44037;55.638;37.356;2023-04-05T02:20:13;99357.63;;;6.17;100.00
58239;BME280;44037;55.638;37.356;2023-04-05T02:22:41;99356.72;;;6.15;100.00
58239;BME280;44037;55.638;37.356;2023-04-05T02:25:10;99360.06;;;6.12;100.00
58239;BME280;44037;55.638;37.356;2023-04-05T02:27:38;99357.47;;;6.11;100.00
58239;BME280;44037;55.638;37.356;2023-04-05T02:30:06;99359.13;;;6.09;100.00
58239;BME280;44037;55.638;37.356;2023-04-05T02:32:34;99361.69;;;6.07;100.00
58239;BME280;44037;55.638;37.356;2023-04-05T02:35:01;99365.91;;;6.04;100.00
58239;BME280;44037;55.638;37.356;2023-04-05T02:37:30;99371.78;;;5.99;100.00
58239;BME280;44037;55.638;37.356;2023-04-05T02:39:57;99366.53;;;5.96;100.00
58239;BME280;44037;55.638;37.356;2023-04-05T02:42:24;99371.66;;;5.95;100.00
58239;BME280;44037;55.638;37.356;2023-04-05T02:44:51;99370.75;;;5.93;100.00
58239;BME280;44037;55.638;37.356;2023-04-05T02:47:19;99372.38;;;5.89;100.00
58239;BME280;44037;55.638;37.356;2023-04-05T02:49:47;99372.28;;;5.84;100.00
58239;BME280;44037;55.638;37.356;2023-04-05T02:52:14;99377.44;;;5.84;100.00
58239;BME280;44037;55.638;37.356;2023-04-05T02:54:43;99369.63;;;5.81;100.00
58239;BME280;44037;55.638;37.356;2023-04-05T02:57:11;99374.69;;;5.78;100.00
58239;BME280;44037;55.638;37.356;2023-04-05T02:59:39;99375.44;;;5.74;100.00
58239;BME280;44037;55.638;37.356;2023-04-05T03:02:08;99380.56;;;5.74;100.00
58239;BME280;44037;55.638;37.356;2023-04-05T03:04:35;99380.63;;;5.76;100.00
58239;BME280;44037;55.638;37.356;2023-04-05T03:07:03;99387.53;;;5.77;100.00
58239;BME280;44037;55.638;37.356;2023-04-05T03:09:30;99389.31;;;5.81;100.00
58239;BME280;44037;55.638;37.356;2023-04-05T03:12:01;99392.78;;;5.83;100.00
58239;BME280;44037;55.638;37.356;2023-04-05T03:14:28;99392.78;;;5.83;100.00
58239;BME280;44037;55.638;37.356;2023-04-05T03:16:56;99393.69;;;5.83;100.00
58239;BME280;44037;55.638;37.356;2023-04-05T03:19:24;99388.59;;;5.87;100.00
58239;BME280;44037;55.638;37.356;2023-04-05T03:21:51;99398.88;;;5.87;100.00
58239;BME280;44037;55.638;37.356;2023-04-05T03:24:19;99392.88;;;5.86;100.00
58239;BME280;44037;55.638;37.356;2023-04-05T03:26:47;99391.13;;;5.85;100.00
58239;BME280;44037;55.638;37.356;2023-04-05T03:29:15;99397.16;;;5.86;100.00
58239;BME280;44037;55.638;37.356;2023-04-05T03:31:44;99400.59;;;5.86;100.00
58239;BME280;44037;55.638;37.356;2023-04-05T03:34:11;99404.91;;;5.87;100.00
58239;BME280;44037;55.638;37.356;2023-04-05T03:36:38;99408.38;;;5.89;100.00
58239;BME280;44037;55.638;37.356;2023-04-05T03:39:09;99408.44;;;5.92;100.00
58239;BME280;44037;55.638;37.356;2023-04-05T03:41:36;99415.41;;;5.96;100.00
58239;BME280;44037;55.638;37.356;2023-04-05T03:44:03;99414.56;;;5.97;100.00
58239;BME280;44037;55.638;37.356;2023-04-05T03:46:32;99412.88;;;5.98;100.00
58239;BME280;44037;55.638;37.356;2023-04-05T03:49:01;99406.97;;;6.01;100.00
58239;BME280;44037;55.638;37.356;2023-04-05T03:51:28;99401.91;;;6.04;100.00
58239;BME280;44037;55.638;37.356;2023-04-05T03:53:55;99412.25;;;6.07;100.00
58239;BME280;44037;55.638;37.356;2023-04-05T03:56:22;99409.69;;;6.07;100.00
58239;BME280;44037;55.638;37.356;2023-04-05T03:58:51;99419.94;;;6.05;100.00
58239;BME280;44037;55.638;37.356;2023-04-05T04:01:18;99422.50;;;6.04;100.00
58239;BME280;44037;55.638;37.356;2023-04-05T04:03:47;99424.22;;;6.05;100.00
58239;BME280;44037;55.638;37.356;2023-04-05T04:06:14;99426.75;;;6.03;100.00
58239;BME280;44037;55.638;37.356;2023-04-05T04:08:43;99424.97;;;6.01;100.00
58239;BME280;44037;55.638;37.356;2023-04-05T04:11:10;99426.75;;;6.03;100.00
58239;BME280;44037;55.638;37.356;2023-04-05T04:13:37;99432.00;;;6.08;100.00
58239;BME280;44037;55.638;37.356;2023-04-05T04:16:04;99423.56;;;6.13;100.00
58239;BME280;44037;55.638;37.356;2023-04-05T04:18:32;99433.16;;;6.21;100.00
58239;BME280;44037;55.638;37.356;2023-04-05T04:21:02;99429.06;;;6.29;100.00
58239;BME280;44037;55.638;37.356;2023-04-05T04:23:31;99436.06;;;6.35;100.00
58239;BME280;44037;55.638;37.356;2023-04-05T04:25:59;99441.28;;;6.38;100.00
58239;BME280;44037;55.638;37.356;2023-04-05T04:28:26;99446.53;;;6.42;100.00
58239;BME280;44037;55.638;37.356;2023-04-05T04:30:53;99438.81;;;6.44;100.00
58239;BME280;44037;55.638;37.356;2023-04-05T04:33:20;99437.97;;;6.43;100.00
58239;BME280;44037;55.638;37.356;2023-04-05T04:35:48;99435.41;;;6.45;100.00
58239;BME280;44037;55.638;37.356;2023-04-05T04:38:20;99450.91;;;6.47;100.00
58239;BME280;44037;55.638;37.356;2023-04-05T04:40:50;99446.69;;;6.49;100.00
58239;BME280;44037;55.638;37.356;2023-04-05T04:43:18;99448.47;;;6.53;100.00
58239;BME280;44037;55.638;37.356;2023-04-05T04:45:52;99444.22;;;6.55;100.00
58239;BME280;44037;55.638;37.356;2023-04-05T04:48:20;99448.53;;;6.56;100.00
58239;BME280;44037;55.638;37.356;2023-04-05T04:50:47;99453.75;;;6.59;100.00
58239;BME280;44037;55.638;37.356;2023-04-05T04:53:15;99448.72;;;6.64;100.00
58239;BME280;44037;55.638;37.356;2023-04-05T04:55:44;99454.94;;;6.73;100.00
58239;BME280;44037;55.638;37.356;2023-04-05T04:58:15;99453.47;;;6.85;100.00
58239;BME280;44037;55.638;37.356;2023-04-05T05:00:43;99459.63;;;6.91;100.00
58239;BME280;44037;55.638;37.356;2023-04-05T05:03:10;99458.03;;;6.98;100.00
58239;BME280;44037;55.638;37.356;2023-04-05T05:05:41;99457.31;;;7.05;100.00
58239;BME280;44037;55.638;37.356;2023-04-05T05:08:09;99465.13;;;7.10;100.00
58239;BME280;44037;55.638;37.356;2023-04-05T05:10:36;99467.69;;;7.09;100.00
58239;BME280;44037;55.638;37.356;2023-04-05T05:13:04;99471.94;;;7.06;100.00
58239;BME280;44037;55.638;37.356;2023-04-05T05:15:32;99469.38;;;7.08;100.00
58239;BME280;44037;55.638;37.356;2023-04-05T05:17:59;99473.63;;;7.06;100.00
58239;BME280;44037;55.638;37.356;2023-04-05T05:20:26;99475.31;;;7.04;100.00
58239;BME280;44037;55.638;37.356;2023-04-05T05:22:54;99475.31;;;7.04;100.00
58239;BME280;44037;55.638;37.356;2023-04-05T05:25:22;99477.94;;;7.07;100.00
58239;BME280;44037;55.638;37.356;2023-04-05T05:27:49;99484.97;;;7.14;100.00
58239;BME280;44037;55.638;37.356;2023-04-05T05:30:18;99480.81;;;7.21;100.00
58239;BME280;44037;55.638;37.356;2023-04-05T05:32:45;99485.34;;;7.33;100.00
58239;BME280;44037;55.638;37.356;2023-04-05T05:35:13;99477.81;;;7.42;100.00
58239;BME280;44037;55.638;37.356;2023-04-05T05:37:40;99475.34;;;7.50;100.00
58239;BME280;44037;55.638;37.356;2023-04-05T05:40:08;99478.97;;;7.60;100.00
58239;BME280;44037;55.638;37.356;2023-04-05T05:42:39;99476.56;;;7.69;100.00
58239;BME280;44037;55.638;37.356;2023-04-05T05:45:07;99477.47;;;7.71;100.00
58239;BME280;44037;55.638;37.356;2023-04-05T05:47:36;99485.38;;;7.80;100.00
58239;BME280;44037;55.638;37.356;2023-04-05T05:50:03;99476.97;;;7.92;100.00
58239;BME280;44037;55.638;37.356;2023-04-05T05:52:30;99485.75;;;8.02;100.00
58239;BME280;44037;55.638;37.356;2023-04-05T05:54:58;99489.38;;;8.12;100.00
58239;BME280;44037;55.638;37.356;2023-04-05T05:57:25;99492.94;;;8.20;100.00
58239;BME280;44037;55.638;37.356;2023-04-05T05:59:52;99491.31;;;8.28;100.00
58239;BME280;44037;55.638;37.356;2023-04-05T06:02:19;99494.81;;;8.32;100.00
58239;BME280;44037;55.638;37.356;2023-04-05T06:04:48;99494.88;;;8.34;99.72
58239;BME280;44037;55.638;37.356;2023-04-05T06:07:15;99492.34;;;8.37;99.19
58239;BME280;44037;55.638;37.356;2023-04-05T06:09:42;99490.66;;;8.40;98.23
58239;BME280;44037;55.638;37.356;2023-04-05T06:12:09;99490.66;;;8.40;97.09
58239;BME280;44037;55.638;37.356;2023-04-05T06:14:36;99492.41;;;8.41;96.53
58239;BME280;44037;55.638;37.356;2023-04-05T06:17:04;99489.00;;;8.45;96.65
58239;BME280;44037;55.638;37.356;2023-04-05T06:19:31;99493.41;;;8.48;95.67
58239;BME280;44037;55.638;37.356;2023-04-05T06:21:59;99496.97;;;8.58;96.43
58239;BME280;44037;55.638;37.356;2023-04-05T06:24:27;99495.34;;;8.65;95.44
58239;BME280;44037;55.638;37.356;2023-04-05T06:26:56;99493.72;;;8.70;95.39
58239;BME280;44037;55.638;37.356;2023-04-05T06:29:24;99493.78;;;8.74;94.55
58239;BME280;44037;55.638;37.356;2023-04-05T06:31:51;99499.00;;;8.78;93.34
58239;BME280;44037;55.638;37.356;2023-04-05T06:34:18;99502.47;;;8.81;93.82
58239;BME280;44037;55.638;37.356;2023-04-05T06:36:45;99503.47;;;8.91;94.16
58239;BME280;44037;55.638;37.356;2023-04-05T06:39:14;99497.66;;;9.07;94.14
58239;BME280;44037;55.638;37.356;2023-04-05T06:41:41;99509.88;;;9.19;93.69
58239;BME280;44037;55.638;37.356;2023-04-05T06:44:08;99510.81;;;9.26;91.71
58239;BME280;44037;55.638;37.356;2023-04-05T06:46:35;99508.22;;;9.26;91.03
58239;BME280;44037;55.638;37.356;2023-04-05T06:49:02;99507.38;;;9.26;90.10
58239;BME280;44037;55.638;37.356;2023-04-05T06:51:29;99507.28;;;9.21;88.96
58239;BME280;44037;55.638;37.356;2023-04-05T06:53:56;99515.09;;;9.22;88.93
58239;BME280;44037;55.638;37.356;2023-04-05T06:56:25;99510.91;;;9.32;90.24
58239;BME280;44037;55.638;37.356;2023-04-05T06:58:52;99510.25;;;9.50;90.88
58239;BME280;44037;55.638;37.356;2023-04-05T07:01:20;99514.78;;;9.70;90.68
58239;BME280;44037;55.638;37.356;2023-04-05T07:03:49;99507.13;;;9.82;90.07
58239;BME280;44037;55.638;37.356;2023-04-05T07:06:16;99510.69;;;9.94;89.95
58239;BME280;44037;55.638;37.356;2023-04-05T07:08:43;99524.63;;;10.10;89.12
58239;BME280;44037;55.638;37.356;2023-04-05T07:11:12;99514.34;;;10.18;88.24
58239;BME280;44037;55.638;37.356;2023-04-05T07:13:40;99513.59;;;10.29;87.96
58239;BME280;44037;55.638;37.356;2023-04-05T07:16:07;99513.75;;;10.47;88.11
58239;BME280;44037;55.638;37.356;2023-04-05T07:18:34;99506.94;;;10.59;88.19
58239;BME280;44037;55.638;37.356;2023-04-05T07:21:01;99518.34;;;10.86;88.06
58239;BME280;44037;55.638;37.356;2023-04-05T07:23:29;99509.81;;;11.01;86.63
58239;BME280;44037;55.638;37.356;2023-04-05T07:26:00;99509.84;;;11.12;87.37
58239;BME280;44037;55.638;37.356;2023-04-05T07:28:30;99511.66;;;11.32;85.89
58239;BME280;44037;55.638;37.356;2023-04-05T07:30:59;99507.38;;;11.43;85.21
58239;BME280;44037;55.638;37.356;2023-04-05T07:33:26;99507.38;;;11.49;83.94
58239;BME280;44037;55.638;37.356;2023-04-05T07:35:53;99517.78;;;11.52;81.81
58239;BME280;44037;55.638;37.356;2023-04-05T07:38:21;99507.41;;;11.46;81.18
58239;BME280;44037;55.638;37.356;2023-04-05T07:40:48;99514.28;;;11.47;79.93
58239;BME280;44037;55.638;37.356;2023-04-05T07:43:18;99516.03;;;11.48;79.75
58239;BME280;44037;55.638;37.356;2023-04-05T07:45:45;99517.78;;;11.51;78.65
58239;BME280;44037;55.638;37.356;2023-04-05T07:48:14;99514.31;;;11.46;78.15
58239;BME280;44037;55.638;37.356;2023-04-05T07:50:41;99509.09;;;11.47;78.48
58239;BME280;44037;55.638;37.356;2023-04-05T07:53:12;99515.19;;;11.54;79.49
58239;BME280;44037;55.638;37.356;2023-04-05T07:55:39;99516.94;;;11.63;77.90
58239;BME280;44037;55.638;37.356;2023-04-05T07:58:06;99511.78;;;11.74;79.21
58239;BME280;44037;55.638;37.356;2023-04-05T08:00:33;99515.25;;;11.82;76.82
58239;BME280;44037;55.638;37.356;2023-04-05T08:03:01;99516.13;;;11.86;76.98
58239;BME280;44037;55.638;37.356;2023-04-05T08:05:30;99514.44;;;11.94;76.45
58239;BME280;44037;55.638;37.356;2023-04-05T08:07:57;99524.88;;;12.06;75.67
58239;BME280;44037;55.638;37.356;2023-04-05T08:10:24;99519.66;;;12.05;75.11
58239;BME280;44037;55.638;37.356;2023-04-05T08:12:52;99517.91;;;11.93;73.03
58239;BME280;44037;55.638;37.356;2023-04-05T08:15:19;99516.19;;;11.98;72.54
58239;BME280;44037;55.638;37.356;2023-04-05T08:17:46;99513.59;;;12.01;72.09
58239;BME280;44037;55.638;37.356;2023-04-05T08:20:13;99520.53;;;12.16;72.10
58239;BME280;44037;55.638;37.356;2023-04-05T08:22:42;99515.34;;;12.24;71.74
58239;BME280;44037;55.638;37.356;2023-04-05T08:25:09;99504.94;;;12.11;70.19
58239;BME280;44037;55.638;37.356;2023-04-05T08:27:39;99517.97;;;12.30;70.30
58239;BME280;44037;55.638;37.356;2023-04-05T08:30:07;99520.56;;;12.50;71.16
58239;BME280;44037;55.638;37.356;2023-04-05T08:32:34;99517.91;;;12.73;72.67
58239;BME280;44037;55.638;37.356;2023-04-05T08:35:01;99517.84;;;13.01;71.25
58239;BME280;44037;55.638;37.356;2023-04-05T08:37:32;99514.34;;;13.16;70.27
58239;BME280;44037;55.638;37.356;2023-04-05T08:40:01;99515.16;;;13.26;69.36
58239;BME280;44037;55.638;37.356;2023-04-05T08:42:33;99515.13;;;13.37;69.46
58239;BME280;44037;55.638;37.356;2023-04-05T08:45:02;99521.22;;;13.44;67.15
58239;BME280;44037;55.638;37.356;2023-04-05T08:47:30;99516.88;;;13.35;66.34
58239;BME280;44037;55.638;37.356;2023-04-05T08:49:57;99514.31;;;13.26;65.14
58239;BME280;44037;55.638;37.356;2023-04-05T08:52:25;99514.28;;;13.32;67.52
58239;BME280;44037;55.638;37.356;2023-04-05T08:54:53;99514.22;;;13.58;68.75
58239;BME280;44037;55.638;37.356;2023-04-05T08:57:24;99519.28;;;13.83;68.54
58239;BME280;44037;55.638;37.356;2023-04-05T08:59:54;99512.16;;;14.05;67.16
58239;BME280;44037;55.638;37.356;2023-04-05T09:02:22;99517.41;;;14.01;64.26
58239;BME280;44037;55.638;37.356;2023-04-05T09:04:51;99515.72;;;13.96;64.89
58239;BME280;44037;55.638;37.356;2023-04-05T09:07:19;99508.63;;;14.14;65.67
58239;BME280;44037;55.638;37.356;2023-04-05T09:09:52;99516.34;;;14.29;61.98
58239;BME280;44037;55.638;37.356;2023-04-05T09:12:25;99511.84;;;14.47;64.77
58239;BME280;44037;55.638;37.356;2023-04-05T09:14:55;99506.41;;;14.73;65.31
58239;BME280;44037;55.638;37.356;2023-04-05T09:17:22;99514.00;;;14.97;64.81
58239;BME280;44037;55.638;37.356;2023-04-05T09:19:50;99518.34;;;14.98;61.84
58239;BME280;44037;55.638;37.356;2023-04-05T09:22:17;99510.47;;;15.01;60.95
58239;BME280;44037;55.638;37.356;2023-04-05T09:24:45;99511.44;;;14.94;60.28
58239;BME280;44037;55.638;37.356;2023-04-05T09:27:14;99502.75;;;14.92;61.30
58239;BME280;44037;55.638;37.356;2023-04-05T09:29:45;99510.53;;;14.96;59.88
58239;BME280;44037;55.638;37.356;2023-04-05T09:32:13;99504.50;;;14.91;59.44
58239;BME280;44037;55.638;37.356;2023-04-05T09:34:42;99505.56;;;14.67;57.30
58239;BME280;44037;55.638;37.356;2023-04-05T09:37:13;99497.97;;;14.43;58.83
58239;BME280;44037;55.638;37.356;2023-04-05T09:39:41;99517.06;;;14.46;59.42
58239;BME280;44037;55.638;37.356;2023-04-05T09:42:11;99503.19;;;14.42;58.21
58239;BME280;44037;55.638;37.356;2023-04-05T09:44:50;99494.44;;;14.49;59.53
58239;BME280;44037;55.638;37.356;2023-04-05T09:47:19;99501.25;;;14.63;59.94
58239;BME280;44037;55.638;37.356;2023-04-05T09:49:46;99506.38;;;14.77;60.75
58239;BME280;44037;55.638;37.356;2023-04-05T09:52:20;99501.00;;;14.94;60.94
58239;BME280;44037;55.638;37.356;2023-04-05T09:54:48;99499.09;;;15.08;60.11
58239;BME280;44037;55.638;37.356;2023-04-05T09:57:17;99497.19;;;15.23;60.81
58239;BME280;44037;55.638;37.356;2023-04-05T09:59:45;99499.56;;;15.41;60.75
58239;BME280;44037;55.638;37.356;2023-04-05T10:02:14;99497.09;;;15.30;56.44
58239;BME280;44037;55.638;37.356;2023-04-05T10:04:42;99496.31;;;15.24;58.13
58239;BME280;44037;55.638;37.356;2023-04-05T10:07:11;99491.97;;;15.23;59.24
58239;BME280;44037;55.638;37.356;2023-04-05T10:09:39;99498.72;;;15.38;59.94
58239;BME280;44037;55.638;37.356;2023-04-05T10:12:07;99494.28;;;15.47;58.83
58239;BME280;44037;55.638;37.356;2023-04-05T10:14:34;99494.09;;;15.60;59.02
58239;BME280;44037;55.638;37.356;2023-04-05T10:17:11;99501.13;;;15.55;55.30
58239;BME280;44037;55.638;37.356;2023-04-05T10:19:56;99495.22;;;15.40;58.39
58239;BME280;44037;55.638;37.356;2023-04-05T10:22:35;99492.69;;;15.32;57.52
58239;BME280;44037;55.638;37.356;2023-04-05T10:25:07;99500.63;;;15.26;57.99
58239;BME280;44037;55.638;37.356;2023-04-05T10:27:41;99498.91;;;15.24;58.67
58239;BME280;44037;55.638;37.356;2023-04-05T10:30:15;99500.56;;;15.31;57.79
58239;BME280;44037;55.638;37.356;2023-04-05T10:32:55;99493.84;;;15.10;56.27
58239;BME280;44037;55.638;37.356;2023-04-05T10:35:30;99501.03;;;14.87;55.80
58239;BME280;44037;55.638;37.356;2023-04-05T10:38:06;99499.50;;;14.69;57.70
58239;BME280;44037;55.638;37.356;2023-04-05T10:40:37;99505.50;;;14.78;58.60
58239;BME280;44037;55.638;37.356;2023-04-05T10:43:15;99491.69;;;14.65;56.99
58239;BME280;44037;55.638;37.356;2023-04-05T10:45:46;99501.44;;;14.47;57.84
58239;BME280;44037;55.638;37.356;2023-04-05T10:48:22;99497.22;;;14.31;57.92
58239;BME280;44037;55.638;37.356;2023-04-05T10:50:53;99509.41;;;14.30;59.11
58239;BME280;44037;55.638;37.356;2023-04-05T10:53:21;99502.38;;;14.38;58.93
58239;BME280;44037;55.638;37.356;2023-04-05T10:55:49;99492.78;;;14.42;59.25
58239;BME280;44037;55.638;37.356;2023-04-05T10:58:17;99496.13;;;14.56;60.31
58239;BME280;44037;55.638;37.356;2023-04-05T11:00:46;99492.53;;;14.73;59.47
58239;BME280;44037;55.638;37.356;2023-04-05T11:03:44;99490.66;;;14.84;59.55
58239;BME280;44037;55.638;37.356;2023-04-05T11:06:20;99498.50;;;14.84;57.32
58239;BME280;44037;55.638;37.356;2023-04-05T11:08:49;99485.53;;;14.77;57.74
58239;BME280;44037;55.638;37.356;2023-04-05T11:11:18;99490.69;;;14.81;58.45
58239;BME280;44037;55.638;37.356;2023-04-05T11:13:50;99490.66;;;14.83;57.30
58239;BME280;44037;55.638;37.356;2023-04-05T11:16:18;99484.66;;;14.78;56.75
58239;BME280;44037;55.638;37.356;2023-04-05T11:18:45;99479.44;;;14.78;58.08
58239;BME280;44037;55.638;37.356;2023-04-05T11:21:22;99482.84;;;14.84;58.25
58239;BME280;44037;55.638;37.356;2023-04-05T11:24:00;99483.63;;;14.91;57.87
58239;BME280;44037;55.638;37.356;2023-04-05T11:26:33;99483.66;;;14.88;57.56
58239;BME280;44037;55.638;37.356;2023-04-05T11:29:00;99478.41;;;14.89;58.03
58239;BME280;44037;55.638;37.356;2023-04-05T11:31:27;99479.25;;;14.95;58.21
58239;BME280;44037;55.638;37.356;2023-04-05T11:33:56;99485.31;;;14.97;57.96
58239;BME280;44037;55.638;37.356;2023-04-05T11:36:36;99472.22;;;15.00;58.34
58239;BME280;44037;55.638;37.356;2023-04-05T11:39:28;99476.59;;;14.98;57.95
58239;BME280;44037;55.638;37.356;2023-04-05T11:41:59;99471.38;;;14.96;57.34
58239;BME280;44037;55.638;37.356;2023-04-05T11:44:40;99477.72;;;14.73;56.29
58239;BME280;44037;55.638;37.356;2023-04-05T11:47:07;99464.88;;;14.50;57.12
58239;BME280;44037;55.638;37.356;2023-04-05T11:49:36;99472.00;;;14.31;58.59
58239;BME280;44037;55.638;37.356;2023-04-05T11:52:13;99471.13;;;14.35;59.42
58239;BME280;44037;55.638;37.356;2023-04-05T11:54:41;99467.50;;;14.50;59.31
58239;BME280;44037;55.638;37.356;2023-04-05T11:57:12;99480.50;;;14.55;58.39
58239;BME280;44037;55.638;37.356;2023-04-05T11:59:41;99462.28;;;14.50;58.48
58239;BME280;44037;55.638;37.356;2023-04-05T12:02:09;99464.00;;;14.53;58.49
58239;BME280;44037;55.638;37.356;2023-04-05T12:04:36;99459.69;;;14.52;58.56
58239;BME280;44037;55.638;37.356;2023-04-05T12:07:14;99459.56;;;14.61;59.48
58239;BME280;44037;55.638;37.356;2023-04-05T12:10:02;99453.38;;;14.74;59.37
58239;BME280;44037;55.638;37.356;2023-04-05T12:12:34;99459.41;;;14.81;58.93
58239;BME280;44037;55.638;37.356;2023-04-05T12:15:04;99460.31;;;14.79;58.10
58239;BME280;44037;55.638;37.356;2023-04-05T12:17:40;99460.47;;;14.57;57.35
58239;BME280;44037;55.638;37.356;2023-04-05T12:20:08;99468.53;;;14.34;57.49
58239;BME280;44037;55.638;37.356;2023-04-05T12:22:38;99459.09;;;14.19;58.60
58239;BME280;44037;55.638;37.356;2023-04-05T12:25:07;99471.25;;;14.21;58.57
58239;BME280;44037;55.638;37.356;2023-04-05T12:27:35;99473.91;;;14.17;58.35
58239;BME280;44037;55.638;37.356;2023-04-05T12:30:11;99467.94;;;13.99;58.54
58239;BME280;44037;55.638;37.356;2023-04-05T12:32:46;99462.78;;;13.94;59.48
58239;BME280;44037;55.638;37.356;2023-04-05T12:35:18;99478.44;;;13.90;59.47
58239;BME280;44037;55.638;37.356;2023-04-05T12:37:49;99478.38;;;13.93;60.14
58239;BME280;44037;55.638;37.356;2023-04-05T12:40:19;99470.56;;;13.97;59.82
58239;BME280;44037;55.638;37.356;2023-04-05T12:42:47;99468.75;;;14.06;59.80
58239;BME280;44037;55.638;37.356;2023-04-05T12:45:15;99457.44;;;14.08;60.18
58239;BME280;44037;55.638;37.356;2023-04-05T12:47:52;99459.94;;;14.22;60.15
58239;BME280;44037;55.638;37.356;2023-04-05T12:50:25;99453.88;;;14.23;59.18
58239;BME280;44037;55.638;37.356;2023-04-05T12:52:58;99467.78;;;14.18;59.00
58239;BME280;44037;55.638;37.356;2023-04-05T12:55:27;99453.97;;;14.11;59.05
58239;BME280;44037;55.638;37.356;2023-04-05T12:57:56;99453.97;;;14.06;58.92
58239;BME280;44037;55.638;37.356;2023-04-05T13:00:26;99469.66;;;14.00;59.18
58239;BME280;44037;55.638;37.356;2023-04-05T13:02:55;99456.75;;;13.88;58.63
58239;BME280;44037;55.638;37.356;2023-04-05T13:05:23;99456.03;;;13.67;59.04